createdAt,value
2019-01-30T00:00:18.498Z,31.50
2019-01-30T00:02:46.736Z,26.33
2019-01-30T00:05:15.024Z,25.20
2019-01-30T00:07:43.283Z,21.60
2019-01-30T00:10:12.463Z,21.50
2019-01-30T00:12:40.741Z,24.47
2019-01-30T00:15:09.682Z,22.93
2019-01-30T00:17:37.943Z,24.17
2019-01-30T00:20:09.608Z,21.13
2019-01-30T00:22:37.872Z,26.77
2019-01-30T00:25:08.675Z,18.97
2019-01-30T00:27:36.951Z,20.00
2019-01-30T00:30:17.080Z,20.27
2019-01-30T00:32:45.327Z,20.30
2019-01-30T00:35:13.667Z,19.10
2019-01-30T00:37:42.683Z,19.87
2019-01-30T00:40:15.818Z,20.43
2019-01-30T00:42:44.102Z,15.53
2019-01-30T00:45:14.853Z,20.80
2019-01-30T00:47:43.118Z,19.83
2019-01-30T00:50:14.260Z,22.77
2019-01-30T00:52:42.672Z,18.97
2019-01-30T00:55:11.862Z,17.57
2019-01-30T00:57:40.131Z,23.57
2019-01-30T01:00:17.024Z,25.07
2019-01-30T01:02:45.595Z,18.60
2019-01-30T01:05:14.025Z,20.20
2019-01-30T01:07:42.985Z,18.07
2019-01-30T01:10:18.259Z,19.37
2019-01-30T01:12:56.475Z,20.50
2019-01-30T01:15:28.369Z,22.67
2019-01-30T01:18:07.677Z,17.80
2019-01-30T01:20:59.457Z,20.33
2019-01-30T01:23:46.802Z,24.52
2019-01-30T01:26:39.405Z,16.63
2019-01-30T01:29:16.846Z,18.33
2019-01-30T01:31:50.336Z,18.60
2019-01-30T01:34:42.122Z,18.77
2019-01-30T01:37:16.207Z,18.07
2019-01-30T01:39:55.975Z,16.63
2019-01-30T01:42:47.612Z,17.53
2019-01-30T01:45:32.672Z,18.05
2019-01-30T01:48:06.667Z,19.10
2019-01-30T01:51:01.059Z,17.03
2019-01-30T01:53:35.575Z,17.43
2019-01-30T01:56:03.857Z,16.47
2019-01-30T01:58:32.111Z,14.47
2019-01-30T02:01:00.415Z,21.10
2019-01-30T02:03:28.740Z,20.53
2019-01-30T02:05:57.104Z,16.90
2019-01-30T02:08:25.364Z,17.67
2019-01-30T02:10:53.647Z,16.37
2019-01-30T02:13:21.964Z,22.27
2019-01-30T02:15:50.243Z,19.97
2019-01-30T02:18:18.520Z,21.17
2019-01-30T02:20:46.783Z,20.70
2019-01-30T02:23:15.062Z,20.83
2019-01-30T02:25:43.468Z,17.33
2019-01-30T02:28:12.897Z,24.80
2019-01-30T02:30:47.644Z,20.40
2019-01-30T02:33:11.210Z,19.00
2019-01-30T02:35:39.473Z,16.47
2019-01-30T02:38:07.726Z,23.07
2019-01-30T02:40:36.285Z,23.60
2019-01-30T02:43:06.079Z,23.30
2019-01-30T02:45:34.616Z,18.40
2019-01-30T02:48:03.175Z,20.93
2019-01-30T02:50:34.899Z,20.63
2019-01-30T02:53:02.046Z,24.43
2019-01-30T02:55:30.557Z,30.93
2019-01-30T02:57:59.264Z,18.87
2019-01-30T03:00:29.740Z,29.10
2019-01-30T03:02:58.335Z,24.57
2019-01-30T03:05:27.169Z,22.63
2019-01-30T03:07:58.905Z,24.00
2019-01-30T03:10:27.482Z,27.20
2019-01-30T03:12:56.056Z,20.17
2019-01-30T03:15:24.754Z,17.70
2019-01-30T03:17:53.428Z,24.27
2019-01-30T03:20:24.574Z,21.53
2019-01-30T03:22:53.129Z,22.77
2019-01-30T03:25:23.069Z,22.17
2019-01-30T03:27:51.706Z,23.03
2019-01-30T03:30:23.018Z,27.77
2019-01-30T03:32:51.621Z,26.33
2019-01-30T03:35:20.074Z,23.60
2019-01-30T03:37:48.656Z,27.67
2019-01-30T03:40:18.791Z,24.87
2019-01-30T03:42:47.330Z,28.03
2019-01-30T03:45:21.149Z,26.33
2019-01-30T03:47:50.035Z,27.47
2019-01-30T03:50:18.525Z,34.47
2019-01-30T03:52:48.183Z,40.83
2019-01-30T03:55:20.576Z,38.93
2019-01-30T03:57:49.448Z,33.70
2019-01-30T04:00:24.832Z,36.30
2019-01-30T04:02:53.616Z,33.87
2019-01-30T04:05:22.141Z,26.03
2019-01-30T04:07:50.830Z,37.20
2019-01-30T04:10:21.832Z,31.13
2019-01-30T04:12:50.155Z,33.07
2019-01-30T04:15:18.415Z,32.30
2019-01-30T04:17:46.688Z,32.43
2019-01-30T04:20:17.952Z,34.73
2019-01-30T04:22:46.230Z,32.67
2019-01-30T04:25:14.484Z,32.27
2019-01-30T04:27:43.211Z,35.87
2019-01-30T04:30:16.802Z,31.50
2019-01-30T04:32:45.085Z,36.17
2019-01-30T04:35:13.345Z,35.23
2019-01-30T04:37:41.612Z,28.13
2019-01-30T04:40:15.068Z,31.23
2019-01-30T04:42:43.349Z,32.87
2019-01-30T04:45:14.698Z,37.93
2019-01-30T04:47:43.255Z,35.30
2019-01-30T04:50:11.525Z,71.73
2019-01-30T04:52:39.803Z,29.13
2019-01-30T04:55:09.028Z,32.03
2019-01-30T04:57:37.300Z,27.37
2019-01-30T05:00:11.664Z,28.10
2019-01-30T05:02:39.939Z,28.27
2019-01-30T05:05:10.170Z,30.13
2019-01-30T05:07:38.434Z,24.40
2019-01-30T05:10:09.443Z,28.60
2019-01-30T05:12:37.689Z,26.53
2019-01-30T05:15:09.211Z,25.10
2019-01-30T05:17:37.464Z,24.07
2019-01-30T05:20:09.784Z,26.97
2019-01-30T05:22:38.270Z,26.80
2019-01-30T05:25:08.345Z,26.93
2019-01-30T05:27:36.607Z,25.47
2019-01-30T05:30:08.215Z,28.43
2019-01-30T05:32:36.485Z,23.80
2019-01-30T05:35:06.127Z,26.67
2019-01-30T05:37:34.391Z,30.33
2019-01-30T05:40:02.675Z,34.00
2019-01-30T05:42:30.931Z,36.53
2019-01-30T05:44:59.226Z,27.22
2019-01-30T05:47:27.487Z,29.83
2019-01-30T05:49:55.749Z,31.20
2019-01-30T05:52:24.050Z,33.20
2019-01-30T05:54:52.375Z,33.57
2019-01-30T05:57:20.693Z,34.07
2019-01-30T05:59:48.958Z,33.57
2019-01-30T06:02:17.294Z,33.70
2019-01-30T06:04:45.591Z,31.00
2019-01-30T06:07:13.868Z,39.17
2019-01-30T06:09:42.143Z,38.10
2019-01-30T06:12:10.410Z,36.67
2019-01-30T06:14:38.687Z,38.77
2019-01-30T06:17:06.950Z,37.23
2019-01-30T06:19:35.283Z,43.13
2019-01-30T06:22:03.537Z,36.00
2019-01-30T06:24:31.796Z,41.07
2019-01-30T06:27:00.092Z,34.33
2019-01-30T06:29:28.363Z,36.70
2019-01-30T06:31:56.635Z,34.33
2019-01-30T06:34:27.431Z,32.13
2019-01-30T06:36:55.694Z,35.30
2019-01-30T06:39:23.956Z,40.50
2019-01-30T06:41:52.239Z,44.33
2019-01-30T06:44:20.489Z,37.33
2019-01-30T06:46:48.770Z,49.80
2019-01-30T06:49:17.051Z,40.47
2019-01-30T06:51:45.328Z,42.77
2019-01-30T06:54:13.715Z,45.63
2019-01-30T06:56:41.995Z,46.40
2019-01-30T06:59:10.262Z,43.27
2019-01-30T07:01:38.538Z,46.10
2019-01-30T07:04:06.799Z,46.17
2019-01-30T07:06:35.083Z,47.40
2019-01-30T07:09:09.149Z,42.80
2019-01-30T07:11:37.435Z,40.63
2019-01-30T07:14:05.681Z,42.33
2019-01-30T07:16:34.055Z,38.53
2019-01-30T07:19:02.300Z,39.83
2019-01-30T07:21:30.627Z,38.27
2019-01-30T07:23:58.952Z,40.63
2019-01-30T07:26:27.230Z,42.97
2019-01-30T07:28:55.499Z,40.03
2019-01-30T07:31:23.778Z,37.70
2019-01-30T07:33:52.017Z,31.87
2019-01-30T07:36:20.278Z,35.43
2019-01-30T07:38:48.554Z,31.80
2019-01-30T07:41:16.815Z,33.33
2019-01-30T07:43:45.093Z,27.53
2019-01-30T07:46:13.667Z,33.90
2019-01-30T07:48:41.942Z,35.87
2019-01-30T07:51:10.225Z,30.73
2019-01-30T07:53:38.504Z,42.00
2019-01-30T07:56:06.745Z,38.60
2019-01-30T07:58:35.022Z,37.47
2019-01-30T08:01:03.278Z,34.03
2019-01-30T08:03:31.623Z,37.17
2019-01-30T08:05:59.962Z,28.20
2019-01-30T08:08:28.315Z,28.60
2019-01-30T08:10:56.580Z,37.57
2019-01-30T08:13:24.854Z,40.17
2019-01-30T08:15:53.110Z,32.17
2019-01-30T08:18:21.373Z,32.43
2019-01-30T08:20:49.638Z,35.00
2019-01-30T08:23:18.194Z,38.33
2019-01-30T08:25:46.574Z,34.77
2019-01-30T08:28:15.970Z,36.57
2019-01-30T08:30:44.726Z,41.47
2019-01-30T08:33:13.738Z,38.13
2019-01-30T08:35:41.996Z,35.33
2019-01-30T08:38:10.253Z,39.17
2019-01-30T08:40:38.505Z,35.63
2019-01-30T08:43:06.771Z,32.23
2019-01-30T08:45:35.026Z,35.40
2019-01-30T08:48:03.286Z,41.20
2019-01-30T08:50:31.545Z,32.10
2019-01-30T08:52:59.813Z,42.93
2019-01-30T08:55:28.066Z,42.77
2019-01-30T08:57:56.306Z,43.00
2019-01-30T09:00:27.187Z,35.43
2019-01-30T09:02:55.442Z,40.80
2019-01-30T09:05:23.718Z,34.67
2019-01-30T09:07:51.972Z,41.70
2019-01-30T09:10:25.687Z,38.53
2019-01-30T09:12:53.946Z,39.60
2019-01-30T09:15:24.066Z,39.50
2019-01-30T09:17:52.565Z,41.43
2019-01-30T09:20:22.471Z,42.33
2019-01-30T09:22:50.724Z,45.37
2019-01-30T09:25:20.915Z,41.37
2019-01-30T09:27:49.791Z,36.17
2019-01-30T09:30:28.551Z,38.70
2019-01-30T09:32:56.827Z,38.20
2019-01-30T09:35:25.144Z,39.53
2019-01-30T09:37:53.432Z,39.23
2019-01-30T09:40:22.178Z,40.43
2019-01-30T09:42:50.435Z,39.50
2019-01-30T09:45:19.660Z,35.97
2019-01-30T09:47:47.973Z,35.83
2019-01-30T09:50:24.611Z,33.50
2019-01-30T09:52:53.480Z,35.27
2019-01-30T09:55:21.810Z,36.43
2019-01-30T09:57:50.095Z,35.63
2019-01-30T10:00:28.937Z,36.93
2019-01-30T10:02:57.239Z,37.03
2019-01-30T10:05:25.502Z,37.30
2019-01-30T10:07:55.258Z,38.40
2019-01-30T10:10:28.698Z,36.37
2019-01-30T10:12:56.952Z,37.17
2019-01-30T10:15:30.802Z,29.07
2019-01-30T10:17:59.124Z,31.90
2019-01-30T10:20:28.956Z,30.20
2019-01-30T10:22:57.216Z,26.33
2019-01-30T10:25:25.483Z,32.90
2019-01-30T10:27:53.732Z,37.23
2019-01-30T10:30:27.375Z,30.23
2019-01-30T10:32:55.632Z,31.93
2019-01-30T10:35:23.887Z,32.83
2019-01-30T10:37:52.156Z,32.17
2019-01-30T10:40:21.367Z,30.37
2019-01-30T10:42:50.037Z,29.63
2019-01-30T10:45:18.545Z,34.27
2019-01-30T10:47:46.903Z,24.13
2019-01-30T10:50:17.940Z,29.30
2019-01-30T10:52:46.219Z,31.90
2019-01-30T10:55:19.769Z,29.90
2019-01-30T10:57:49.678Z,30.03
2019-01-30T11:00:26.658Z,29.67
2019-01-30T11:02:55.013Z,30.97
2019-01-30T11:05:23.259Z,26.83
2019-01-30T11:07:51.518Z,29.63
2019-01-30T11:10:20.807Z,33.13
2019-01-30T11:12:49.104Z,29.43
2019-01-30T11:15:20.104Z,31.00
2019-01-30T11:17:48.399Z,31.67
2019-01-30T11:20:18.490Z,29.10
2019-01-30T11:22:46.737Z,26.37
2019-01-30T11:25:17.791Z,28.17
2019-01-30T11:27:46.059Z,29.27
2019-01-30T11:30:15.951Z,30.07
2019-01-30T11:32:44.222Z,26.63
2019-01-30T11:35:12.485Z,30.47
2019-01-30T11:37:40.739Z,28.10
2019-01-30T11:40:17.382Z,26.83
2019-01-30T11:42:45.636Z,27.30
2019-01-30T11:45:19.573Z,28.97
2019-01-30T11:47:47.836Z,30.33
2019-01-30T11:50:16.831Z,27.00
2019-01-30T11:52:45.167Z,30.20
2019-01-30T11:55:15.768Z,27.80
2019-01-30T11:57:44.209Z,34.43
2019-01-30T12:00:17.008Z,32.00
2019-01-30T12:02:47.822Z,26.00
2019-01-30T12:05:16.108Z,29.37
2019-01-30T12:07:44.361Z,31.57
2019-01-30T12:10:13.740Z,32.70
2019-01-30T12:12:42.083Z,29.00
2019-01-30T12:15:13.733Z,31.03
2019-01-30T12:17:42.024Z,32.37
2019-01-30T12:20:12.137Z,30.53
2019-01-30T12:22:40.399Z,29.40
2019-01-30T12:25:11.512Z,30.77
2019-01-30T12:27:39.871Z,36.10
2019-01-30T12:30:14.271Z,30.20
2019-01-30T12:32:42.544Z,30.50
2019-01-30T12:35:10.807Z,36.57
2019-01-30T12:37:39.053Z,29.30
2019-01-30T12:40:10.592Z,40.87
2019-01-30T12:42:38.865Z,36.17
2019-01-30T12:45:15.926Z,37.47
2019-01-30T12:47:44.267Z,41.17
2019-01-30T12:50:12.528Z,43.40
2019-01-30T12:52:40.800Z,35.07
2019-01-30T12:55:10.887Z,45.53
2019-01-30T12:57:39.162Z,39.00
2019-01-30T13:00:18.781Z,43.77
2019-01-30T13:02:47.057Z,40.43
2019-01-30T13:05:15.649Z,38.60
2019-01-30T13:07:44.319Z,43.30
2019-01-30T13:10:12.572Z,46.13
2019-01-30T13:12:40.843Z,42.90
2019-01-30T13:15:14.397Z,45.67
2019-01-30T13:17:42.671Z,43.10
2019-01-30T13:20:15.875Z,44.77
2019-01-30T13:22:44.367Z,44.30
2019-01-30T13:25:13.452Z,44.77
2019-01-30T13:27:41.719Z,44.60
2019-01-30T13:30:13.261Z,49.53
2019-01-30T13:32:41.531Z,46.83
2019-01-30T13:35:09.771Z,48.97
2019-01-30T13:37:38.038Z,47.20
2019-01-30T13:40:09.611Z,49.73
2019-01-30T13:42:37.869Z,47.57
2019-01-30T13:45:09.275Z,54.80
2019-01-30T13:47:37.554Z,46.20
2019-01-30T13:50:09.098Z,54.87
2019-01-30T13:52:37.410Z,52.53
2019-01-30T13:55:07.752Z,54.57
2019-01-30T13:57:36.059Z,55.23
2019-01-30T14:00:06.608Z,58.80
2019-01-30T14:02:34.900Z,52.10
2019-01-30T14:05:03.308Z,53.67
2019-01-30T14:07:31.586Z,52.97
2019-01-30T14:09:59.911Z,59.63
2019-01-30T14:12:28.199Z,54.63
2019-01-30T14:14:56.501Z,46.40
2019-01-30T14:17:24.863Z,55.27
2019-01-30T14:19:53.167Z,47.13
2019-01-30T14:22:21.414Z,47.77
2019-01-30T14:24:49.679Z,48.43
2019-01-30T14:27:17.931Z,55.00
2019-01-30T14:29:46.274Z,48.83
2019-01-30T14:32:14.978Z,48.80
2019-01-30T14:34:43.388Z,50.83
2019-01-30T14:37:11.689Z,53.70
2019-01-30T14:39:39.988Z,48.37
2019-01-30T14:42:08.339Z,47.10
2019-01-30T14:44:36.674Z,46.27
2019-01-30T14:47:04.996Z,48.23
2019-01-30T14:49:33.361Z,47.97
2019-01-30T14:52:01.821Z,45.67
2019-01-30T14:54:30.097Z,52.23
2019-01-30T14:56:58.443Z,42.37
2019-01-30T14:59:26.721Z,49.93
2019-01-30T15:01:55.102Z,39.90
2019-01-30T15:04:23.530Z,39.93
2019-01-30T15:06:51.818Z,39.83
2019-01-30T15:09:20.159Z,40.53
2019-01-30T15:11:48.443Z,38.87
2019-01-30T15:14:16.744Z,44.00
2019-01-30T15:16:45.004Z,43.63
2019-01-30T15:19:13.311Z,41.63
2019-01-30T15:21:41.686Z,32.83
2019-01-30T15:24:10.019Z,38.93
2019-01-30T15:26:38.275Z,33.83
2019-01-30T15:29:06.520Z,33.47
2019-01-30T15:31:34.787Z,34.80
2019-01-30T15:34:03.049Z,34.63
2019-01-30T15:36:31.325Z,41.07
2019-01-30T15:38:59.579Z,60.40
2019-01-30T15:41:27.824Z,58.43
2019-01-30T15:43:56.064Z,54.67
2019-01-30T15:46:25.381Z,40.30
2019-01-30T15:48:53.639Z,39.20
2019-01-30T15:51:21.911Z,37.70
2019-01-30T15:53:50.297Z,43.27
2019-01-30T15:56:18.611Z,41.07
2019-01-30T15:58:46.871Z,56.30
2019-01-30T16:01:15.211Z,42.00
2019-01-30T16:03:43.462Z,38.97
2019-01-30T16:06:11.739Z,45.57
2019-01-30T16:08:39.995Z,44.67
2019-01-30T16:11:08.253Z,38.80
2019-01-30T16:13:36.516Z,39.27
2019-01-30T16:16:05.418Z,48.20
2019-01-30T16:18:33.691Z,39.80
2019-01-30T16:21:01.949Z,44.60
2019-01-30T16:23:30.201Z,45.87
2019-01-30T16:25:58.471Z,47.80
2019-01-30T16:28:26.759Z,50.90
2019-01-30T16:30:55.033Z,47.73
2019-01-30T16:33:23.268Z,45.47
2019-01-30T16:35:56.146Z,45.90
2019-01-30T16:38:21.479Z,49.23
2019-01-30T16:40:49.759Z,46.93
2019-01-30T16:43:18.011Z,40.50
2019-01-30T16:45:46.268Z,45.17
2019-01-30T16:48:15.025Z,42.73
2019-01-30T16:50:43.287Z,44.57
2019-01-30T16:53:11.543Z,45.47
2019-01-30T16:55:39.822Z,49.60
2019-01-30T16:58:08.089Z,49.17
2019-01-30T17:00:37.596Z,43.60
2019-01-30T17:03:07.680Z,45.60
2019-01-30T17:05:35.944Z,46.47
2019-01-30T17:08:06.096Z,44.73
2019-01-30T17:10:34.387Z,41.77
2019-01-30T17:13:02.651Z,47.00
2019-01-30T17:15:34.156Z,42.43
2019-01-30T17:18:02.678Z,49.60
2019-01-30T17:20:36.063Z,37.90
2019-01-30T17:23:04.472Z,38.97
2019-01-30T17:25:32.743Z,49.00
2019-01-30T17:28:01.007Z,44.90
2019-01-30T17:30:35.279Z,41.83
2019-01-30T17:33:03.748Z,45.13
2019-01-30T17:35:32.020Z,41.37
2019-01-30T17:38:00.312Z,51.20
2019-01-30T17:40:29.577Z,48.43
2019-01-30T17:42:57.847Z,49.63
2019-01-30T17:45:26.217Z,48.77
2019-01-30T17:47:54.548Z,51.27
2019-01-30T17:50:27.111Z,47.67
2019-01-30T17:52:55.411Z,53.57
2019-01-30T17:55:25.989Z,54.70
2019-01-30T17:57:53.717Z,54.23
2019-01-30T18:00:26.923Z,62.13
2019-01-30T18:02:55.209Z,59.10
2019-01-30T18:05:23.463Z,64.47
2019-01-30T18:07:51.752Z,64.70
2019-01-30T18:10:20.035Z,70.03
2019-01-30T18:12:48.344Z,64.50
2019-01-30T18:15:16.825Z,69.63
2019-01-30T18:17:45.182Z,66.20
2019-01-30T18:20:18.072Z,75.50
2019-01-30T18:22:46.335Z,71.73
2019-01-30T18:25:16.694Z,81.20
2019-01-30T18:27:45.263Z,73.20
2019-01-30T18:30:18.757Z,76.07
2019-01-30T18:32:47.260Z,83.70
2019-01-30T18:35:15.692Z,77.07
2019-01-30T18:37:44.109Z,80.40
2019-01-30T18:40:15.232Z,63.90
2019-01-30T18:42:43.485Z,76.80
2019-01-30T18:45:14.526Z,81.30
2019-01-30T18:47:42.866Z,83.90
2019-01-30T18:50:14.418Z,83.20
2019-01-30T18:52:42.735Z,84.57
2019-01-30T18:55:10.976Z,89.93
2019-01-30T18:57:39.249Z,80.63
2019-01-30T19:00:13.355Z,83.83
2019-01-30T19:02:41.684Z,96.03
2019-01-30T19:05:12.078Z,99.20
2019-01-30T19:07:40.351Z,90.60
2019-01-30T19:10:11.867Z,88.87
2019-01-30T19:12:40.122Z,94.13
2019-01-30T19:15:14.043Z,96.53
2019-01-30T19:17:42.359Z,95.30
2019-01-30T19:20:16.319Z,91.70
2019-01-30T19:22:45.204Z,99.23
2019-01-30T19:25:13.495Z,95.23
2019-01-30T19:27:41.819Z,94.83
2019-01-30T19:30:16.039Z,87.60
2019-01-30T19:32:45.227Z,92.30
2019-01-30T19:35:13.494Z,98.50
2019-01-30T19:37:41.747Z,97.23
2019-01-30T19:40:13.023Z,99.60
2019-01-30T19:42:41.343Z,102.60
2019-01-30T19:45:15.116Z,102.73
2019-01-30T19:47:43.375Z,103.77
2019-01-30T19:50:14.492Z,93.07
2019-01-30T19:52:42.740Z,105.73
2019-01-30T19:55:11.019Z,105.43
2019-01-30T19:57:39.278Z,95.03
2019-01-30T20:00:10.812Z,101.00
2019-01-30T20:02:39.053Z,99.57
2019-01-30T20:05:10.354Z,96.63
2019-01-30T20:07:38.679Z,96.97
2019-01-30T20:10:10.211Z,108.00
2019-01-30T20:12:38.482Z,103.57
2019-01-30T20:15:09.774Z,102.93
2019-01-30T20:17:38.128Z,98.40
2019-01-30T20:20:09.514Z,97.10
2019-01-30T20:22:37.817Z,112.20
2019-01-30T20:25:09.341Z,105.30
2019-01-30T20:27:37.627Z,110.80
2019-01-30T20:30:11.783Z,108.83
2019-01-30T20:32:40.051Z,109.70
2019-01-30T20:35:08.871Z,108.67
2019-01-30T20:37:37.707Z,94.63
2019-01-30T20:40:12.043Z,98.73
2019-01-30T20:42:40.292Z,113.57
2019-01-30T20:45:11.414Z,107.67
2019-01-30T20:47:39.720Z,108.60
2019-01-30T20:50:13.988Z,121.03
2019-01-30T20:52:42.251Z,108.57
2019-01-30T20:55:12.352Z,112.87
2019-01-30T20:57:40.626Z,110.40
2019-01-30T21:00:12.184Z,103.00
2019-01-30T21:02:40.547Z,97.20
2019-01-30T21:05:09.180Z,105.80
2019-01-30T21:07:37.669Z,107.77
2019-01-30T21:10:15.017Z,99.57
2019-01-30T21:12:43.282Z,97.33
2019-01-30T21:15:14.103Z,94.50
2019-01-30T21:17:42.364Z,96.90
2019-01-30T21:20:16.188Z,101.87
2019-01-30T21:22:45.360Z,94.87
2019-01-30T21:25:19.113Z,102.47
2019-01-30T21:27:47.612Z,92.77
2019-01-30T21:30:19.028Z,94.03
2019-01-30T21:32:47.287Z,95.00
2019-01-30T21:35:15.624Z,92.70
2019-01-30T21:37:49.145Z,90.93
2019-01-30T21:40:18.271Z,98.47
2019-01-30T21:42:47.115Z,85.87
2019-01-30T21:45:19.020Z,85.43
2019-01-30T21:47:47.276Z,88.83
2019-01-30T21:50:15.823Z,87.23
2019-01-30T21:52:44.167Z,80.53
2019-01-30T21:55:24.730Z,90.97
2019-01-30T21:57:53.014Z,84.27
2019-01-30T22:00:36.962Z,79.13
2019-01-30T22:03:05.229Z,79.87
2019-01-30T22:05:33.512Z,88.07
2019-01-30T22:08:01.800Z,81.13
2019-01-30T22:10:30.249Z,84.17
2019-01-30T22:12:58.515Z,78.37
2019-01-30T22:15:26.920Z,71.53
2019-01-30T22:17:55.269Z,80.50
2019-01-30T22:20:25.349Z,79.13
2019-01-30T22:22:53.848Z,72.17
2019-01-30T22:25:23.569Z,80.03
2019-01-30T22:27:51.981Z,79.17
2019-01-30T22:30:28.060Z,75.03
2019-01-30T22:32:56.460Z,67.13
2019-01-30T22:35:24.823Z,71.47
2019-01-30T22:37:53.366Z,69.60
2019-01-30T22:40:21.734Z,67.33
2019-01-30T22:42:50.063Z,64.87
2019-01-30T22:45:22.381Z,61.07
2019-01-30T22:47:50.743Z,67.37
2019-01-30T22:50:19.894Z,74.67
2019-01-30T22:52:48.305Z,58.50
2019-01-30T22:55:18.379Z,61.03
2019-01-30T22:57:46.737Z,61.70
2019-01-30T23:00:32.363Z,61.40
2019-01-30T23:03:00.729Z,68.50
2019-01-30T23:05:56.431Z,60.93
2019-01-30T23:08:24.911Z,59.93
2019-01-30T23:10:59.069Z,60.23
2019-01-30T23:13:33.324Z,54.80
2019-01-30T23:16:10.904Z,52.10
2019-01-30T23:18:58.808Z,45.53
2019-01-30T23:21:33.262Z,43.10
2019-01-30T23:24:28.430Z,45.63
2019-01-30T23:27:00.090Z,41.80
2019-01-30T23:29:43.781Z,38.90
2019-01-30T23:32:15.482Z,39.63
2019-01-30T23:35:18.808Z,36.27
2019-01-30T23:38:05.573Z,41.27
2019-01-30T23:40:37.178Z,38.77
2019-01-30T23:43:20.524Z,37.43
2019-01-30T23:46:14.620Z,36.60
2019-01-30T23:49:02.708Z,32.83
2019-01-30T23:51:52.183Z,36.83
2019-01-30T23:54:23.762Z,37.67
2019-01-30T23:56:58.002Z,32.93
2019-01-30T23:59:48.704Z,37.47
